Time;durP1;ratioP1;P1;durP2;ratioP2;P2;SDS_P1;SDS_P2;PMS_P1;PMS_P2;Temp;Humidity;BMP_temperature;BMP_pressure;BME280_temperature;BME280_humidity;BME280_pressure;Samples;Min_cycle;Max_cycle;Signal;HPM_P1;HPM_P2
2023/08/13 00:02:06;;;;;;;;;;;;;;;21.29;58.93;100746.00;4942856;28;7076;-72
2023/08/13 00:04:32;;;;;;;;;;;;;;;21.29;58.92;100746.84;4959040;28;7133;-70
2023/08/13 00:06:59;;;;;;;;;;;;;;;21.28;59.08;100747.72;4961576;28;7000;-71
2023/08/13 00:09:25;;;;;;;;;;;;;;;21.28;59.06;100739.91;4978550;28;6864;-70
2023/08/13 00:11:51;;;;;;;;;;;;;;;21.28;58.85;100747.72;4964642;28;6779;-71
2023/08/13 00:14:16;;;;;;;;;;;;;;;21.29;58.97;100753.81;4945411;28;6923;-70
2023/08/13 00:16:42;;;;;;;;;;;;;;;21.28;58.68;100747.72;4941084;28;7280;-71
2023/08/13 00:19:07;;;;;;;;;;;;;;;21.32;59.11;100756.44;4942541;28;6788;-72
2023/08/13 00:21:33;;;;;;;;;;;;;;;21.33;58.74;100755.59;4948884;28;7113;-70
2023/08/13 00:23:58;;;;;;;;;;;;;;;21.36;58.89;100747.81;4943673;28;6792;-73
2023/08/13 00:26:24;;;;;;;;;;;;;;;21.37;58.75;100741.75;4963778;28;6931;-70
2023/08/13 00:28:49;;;;;;;;;;;;;;;21.40;58.26;100740.91;4942618;28;6991;-71
2023/08/13 00:31:15;;;;;;;;;;;;;;;21.39;58.56;100740.00;4945719;28;6987;-71
2023/08/13 00:33:41;;;;;;;;;;;;;;;21.36;58.46;100745.22;4940532;28;7408;-70
2023/08/13 00:36:07;;;;;;;;;;;;;;;21.34;58.93;100745.19;4936460;28;7254;-73
2023/08/13 00:38:32;;;;;;;;;;;;;;;21.30;59.08;100742.53;4930571;28;7133;-71
2023/08/13 00:40:57;;;;;;;;;;;;;;;21.27;58.59;100745.13;4931200;28;6980;-72
2023/08/13 00:43:23;;;;;;;;;;;;;;;21.23;58.74;100741.59;4961724;28;6955;-72
2023/08/13 00:45:49;;;;;;;;;;;;;;;21.19;58.69;100737.22;4954125;28;7107;-71
2023/08/13 00:48:14;;;;;;;;;;;;;;;21.17;59.15;100742.44;4970722;28;7410;-70
2023/08/13 00:50:40;;;;;;;;;;;;;;;21.13;58.88;100740.63;4945071;28;6895;-72
2023/08/13 00:53:06;;;;;;;;;;;;;;;21.09;58.99;100742.34;4943970;28;6784;-70
2023/08/13 00:55:32;;;;;;;;;;;;;;;21.05;59.01;100744.88;4941681;28;6812;-71
2023/08/13 00:57:58;;;;;;;;;;;;;;;21.03;59.02;100747.50;4937407;28;8080;-70
2023/08/13 01:00:25;;;;;;;;;;;;;;;21.00;58.85;100744.00;4944161;28;7294;-70
2023/08/13 01:02:51;;;;;;;;;;;;;;;20.97;59.12;100747.44;4975226;28;6816;-70
2023/08/13 01:05:16;;;;;;;;;;;;;;;20.95;59.45;100743.94;4945100;28;6968;-72
2023/08/13 01:07:53;;;;;;;;;;;;;;;20.93;59.14;100745.66;4944227;28;6792;-70
2023/08/13 01:10:30;;;;;;;;;;;;;;;20.87;59.08;100751.69;4978635;28;7071;-72
2023/08/13 01:13:08;;;;;;;;;;;;;;;20.81;58.97;100746.34;4961996;28;6999;-71
2023/08/13 01:15:38;;;;;;;;;;;;;;;20.76;59.41;100750.63;4977815;28;6799;-71
2023/08/13 01:18:04;;;;;;;;;;;;;;;20.73;59.51;100748.00;4963077;28;6796;-70
2023/08/13 01:20:41;;;;;;;;;;;;;;;20.68;59.44;100748.81;4957662;28;6855;-71
2023/08/13 01:23:06;;;;;;;;;;;;;;;20.65;59.41;100756.59;4958066;28;6974;-70
2023/08/13 01:25:32;;;;;;;;;;;;;;;20.60;59.83;100747.88;4961461;28;6882;-71
2023/08/13 01:28:23;;;;;;;;;;;;;;;20.57;59.41;100746.94;4944161;28;6836;-70
2023/08/13 01:30:52;;;;;;;;;;;;;;;20.51;59.56;100750.34;4955737;28;6955;-70
2023/08/13 01:33:28;;;;;;;;;;;;;;;20.45;59.63;100750.25;4942544;28;7039;-70
2023/08/13 01:35:57;;;;;;;;;;;;;;;20.38;59.89;100742.41;4942616;28;7146;-70
2023/08/13 01:38:24;;;;;;;;;;;;;;;20.33;59.43;100746.66;4937282;28;6838;-70
2023/08/13 01:40:49;;;;;;;;;;;;;;;20.28;59.95;100747.44;4957479;28;6812;-70
2023/08/13 01:43:15;;;;;;;;;;;;;;;20.23;59.88;100747.38;4942809;28;7310;-70
2023/08/13 01:45:41;;;;;;;;;;;;;;;20.16;59.93;100746.44;4946363;28;7021;-70
2023/08/13 01:48:06;;;;;;;;;;;;;;;20.10;60.13;100746.34;4960373;28;6787;-72
2023/08/13 01:50:32;;;;;;;;;;;;;;;20.03;60.24;100758.38;4943216;28;6779;-71
2023/08/13 01:52:57;;;;;;;;;;;;;;;19.96;59.95;100752.22;4964820;28;6788;-70
2023/08/13 01:55:23;;;;;;;;;;;;;;;19.94;60.27;100756.53;4959734;28;6935;-70
2023/08/13 01:57:48;;;;;;;;;;;;;;;19.91;60.29;100751.22;4955754;28;7014;-72
2023/08/13 02:00:14;;;;;;;;;;;;;;;19.88;60.48;100756.41;4954771;28;7924;-72
2023/08/13 02:02:39;;;;;;;;;;;;;;;19.86;60.67;100755.50;4944883;28;6804;-70
2023/08/13 02:05:07;;;;;;;;;;;;;;;19.82;61.06;100751.97;4982676;28;6836;-71
2023/08/13 02:07:32;;;;;;;;;;;;;;;19.79;60.97;100754.50;4963615;28;6808;-70
2023/08/13 02:09:57;;;;;;;;;;;;;;;19.76;60.68;100754.47;4963529;28;7079;-70
2023/08/13 02:12:23;;;;;;;;;;;;;;;19.75;60.87;100752.72;4964740;28;7328;-70
2023/08/13 02:14:48;;;;;;;;;;;;;;;19.72;61.10;100750.09;4965322;28;6939;-69
2023/08/13 02:17:14;;;;;;;;;;;;;;;19.71;61.14;100746.59;4961263;28;7079;-72
2023/08/13 02:19:40;;;;;;;;;;;;;;;19.69;60.82;100744.81;4961571;28;7218;-70
2023/08/13 02:22:07;;;;;;;;;;;;;;;19.66;61.03;100740.47;4964266;28;7263;-70
2023/08/13 02:24:32;;;;;;;;;;;;;;;19.65;61.07;100741.31;4950101;28;6988;-69
2023/08/13 02:26:58;;;;;;;;;;;;;;;19.63;60.68;100737.78;4950021;28;6981;-71
2023/08/13 02:29:23;;;;;;;;;;;;;;;19.61;60.89;100739.50;4963561;28;6776;-70
2023/08/13 02:31:49;;;;;;;;;;;;;;;19.60;61.13;100737.75;4945828;28;6792;-71
2023/08/13 02:34:14;;;;;;;;;;;;;;;19.57;61.16;100735.97;4965168;28;6875;-70
2023/08/13 02:36:40;;;;;;;;;;;;;;;19.56;60.91;100722.97;4959742;28;6829;-72
2023/08/13 02:39:05;;;;;;;;;;;;;;;19.54;61.10;100727.25;4946254;28;7038;-72
2023/08/13 02:41:31;;;;;;;;;;;;;;;19.52;61.37;100716.84;4964902;28;6875;-71
2023/08/13 02:43:56;;;;;;;;;;;;;;;19.50;60.81;100721.13;4973416;28;7043;-73
2023/08/13 02:46:23;;;;;;;;;;;;;;;19.49;61.13;100727.16;4964251;28;6800;-74
2023/08/13 02:48:53;;;;;;;;;;;;;;;19.45;60.85;100716.69;4964557;28;6976;-74
2023/08/13 02:51:19;;;;;;;;;;;;;;;19.42;61.23;100721.00;4960621;28;7000;-74
2023/08/13 02:53:44;;;;;;;;;;;;;;;19.37;61.08;100716.59;4945142;28;6828;-75
2023/08/13 02:56:10;;;;;;;;;;;;;;;19.34;60.80;100726.94;4960703;28;6792;-74
2023/08/13 02:58:35;;;;;;;;;;;;;;;19.26;60.95;100727.66;4964243;28;7277;-75
2023/08/13 03:01:02;;;;;;;;;;;;;;;19.17;61.12;100724.91;4949892;28;6965;-74
2023/08/13 03:03:27;;;;;;;;;;;;;;;19.10;60.41;100725.63;4960681;28;6792;-74
2023/08/13 03:05:53;;;;;;;;;;;;;;;19.01;60.62;100716.84;4947847;28;7118;-74
2023/08/13 03:08:18;;;;;;;;;;;;;;;18.98;60.99;100719.34;4945834;28;7023;-74
2023/08/13 03:10:44;;;;;;;;;;;;;;;18.94;61.39;100720.16;4943487;28;7772;-74
2023/08/13 03:13:09;;;;;;;;;;;;;;;18.94;61.36;100717.56;4959113;28;6788;-74
2023/08/13 03:15:35;;;;;;;;;;;;;;;18.94;61.56;100716.66;4977935;28;6999;-75
2023/08/13 03:18:00;;;;;;;;;;;;;;;18.93;61.41;100715.81;4963350;28;6779;-73
2023/08/13 03:20:26;;;;;;;;;;;;;;;18.89;61.21;100713.97;4963139;28;6813;-74
2023/08/13 03:22:51;;;;;;;;;;;;;;;18.87;61.72;100720.88;4945847;28;7019;-75
2023/08/13 03:25:17;;;;;;;;;;;;;;;18.87;62.53;100720.88;4943446;28;6965;-74
2023/08/13 03:27:42;;;;;;;;;;;;;;;18.88;62.33;100713.13;4966614;28;6788;-75
2023/08/13 03:30:08;;;;;;;;;;;;;;;18.90;61.63;100705.34;4954091;28;7037;-73
2023/08/13 03:32:33;;;;;;;;;;;;;;;18.93;62.08;100709.72;4943518;28;7268;-74
2023/08/13 03:34:59;;;;;;;;;;;;;;;18.94;61.97;100716.66;4963919;28;6784;-73
2023/08/13 03:37:24;;;;;;;;;;;;;;;18.95;62.05;100714.09;4959859;28;7238;-74
2023/08/13 03:39:50;;;;;;;;;;;;;;;18.93;61.68;100709.72;4944388;28;7538;-74
2023/08/13 03:42:15;;;;;;;;;;;;;;;18.91;61.39;100707.09;4964369;28;6787;-72
2023/08/13 03:44:41;;;;;;;;;;;;;;;18.90;61.88;100713.13;4962731;28;6844;-73
2023/08/13 03:47:07;;;;;;;;;;;;;;;18.85;61.23;100715.63;4965577;28;6788;-75
2023/08/13 03:49:33;;;;;;;;;;;;;;;18.80;61.41;100721.59;4946455;28;7169;-74
2023/08/13 03:51:59;;;;;;;;;;;;;;;18.73;60.84;100731.88;4964558;28;6924;-75
2023/08/13 03:54:25;;;;;;;;;;;;;;;18.66;61.00;100727.41;4962650;28;6962;-74
2023/08/13 03:56:50;;;;;;;;;;;;;;;18.63;61.97;100734.25;4948824;28;6955;-73
2023/08/13 03:59:15;;;;;;;;;;;;;;;18.58;61.71;100724.63;4959532;28;7334;-74
2023/08/13 04:01:41;;;;;;;;;;;;;;;18.56;61.99;100731.53;4971765;28;6804;-74
2023/08/13 04:04:06;;;;;;;;;;;;;;;18.55;62.08;100732.38;4956299;28;7004;-75
2023/08/13 04:06:32;;;;;;;;;;;;;;;18.56;62.42;100739.31;4959145;28;6799;-73
2023/08/13 04:08:57;;;;;;;;;;;;;;;18.57;62.10;100733.28;4955569;28;7157;-75
2023/08/13 04:11:23;;;;;;;;;;;;;;;18.60;61.74;100732.47;4943645;28;6852;-75
2023/08/13 04:13:48;;;;;;;;;;;;;;;18.62;62.26;100733.38;4944099;28;6793;-73
2023/08/13 04:16:14;;;;;;;;;;;;;;;18.64;61.85;100728.22;4947543;28;6855;-73
2023/08/13 04:18:39;;;;;;;;;;;;;;;18.64;61.97;100731.69;4976385;28;7098;-75
2023/08/13 04:21:05;;;;;;;;;;;;;;;18.65;61.74;100733.44;4943667;28;6795;-74
2023/08/13 04:23:30;;;;;;;;;;;;;;;18.65;61.98;100730.84;4963131;28;6792;-75
2023/08/13 04:25:56;;;;;;;;;;;;;;;18.68;61.97;100730.91;4941308;28;8984;-75
2023/08/13 04:28:21;;;;;;;;;;;;;;;18.71;61.82;100727.50;4959530;28;6788;-74
2023/08/13 04:30:47;;;;;;;;;;;;;;;18.74;62.02;100725.84;4960984;28;7031;-75
2023/08/13 04:33:12;;;;;;;;;;;;;;;18.76;61.86;100718.06;4965167;28;6788;-73
2023/08/13 04:35:38;;;;;;;;;;;;;;;18.80;62.29;100714.69;4957775;28;6815;-75
2023/08/13 04:38:03;;;;;;;;;;;;;;;18.84;61.78;100720.81;4943096;28;7328;-73
2023/08/13 04:40:29;;;;;;;;;;;;;;;18.86;61.87;100729.50;4947373;28;6969;-74
2023/08/13 04:42:54;;;;;;;;;;;;;;;18.87;61.96;100723.47;4962039;28;7121;-73
2023/08/13 04:45:20;;;;;;;;;;;;;;;18.91;62.17;100722.66;4951558;28;6799;-75
2023/08/13 04:47:45;;;;;;;;;;;;;;;18.93;61.67;100723.59;4955302;28;6788;-73
2023/08/13 04:50:11;;;;;;;;;;;;;;;18.95;61.88;100721.91;4944652;28;6935;-74
2023/08/13 04:52:37;;;;;;;;;;;;;;;18.99;62.37;100726.28;4960873;28;6818;-73
2023/08/13 04:55:03;;;;;;;;;;;;;;;19.07;62.53;100723.84;4939298;28;7402;-75
2023/08/13 04:57:28;;;;;;;;;;;;;;;19.15;62.71;100727.47;4962189;28;6815;-74
2023/08/13 04:59:54;;;;;;;;;;;;;;;19.28;62.48;100732.91;4959235;28;8015;-74
2023/08/13 05:02:19;;;;;;;;;;;;;;;19.40;62.26;100727.03;4960240;28;6800;-74
2023/08/13 05:04:45;;;;;;;;;;;;;;;19.50;62.60;100718.53;4945235;28;7068;-75
2023/08/13 05:07:10;;;;;;;;;;;;;;;19.62;62.43;100722.19;4938023;28;7029;-74
2023/08/13 05:09:36;;;;;;;;;;;;;;;19.74;62.30;100724.09;4941205;28;7387;-74
2023/08/13 05:12:01;;;;;;;;;;;;;;;19.88;62.58;100713.91;4973767;28;6973;-73
2023/08/13 05:14:27;;;;;;;;;;;;;;;20.00;62.62;100718.44;4944531;28;7103;-74
2023/08/13 05:16:54;;;;;;;;;;;;;;;20.08;62.19;100719.44;4964386;28;6848;-75
2023/08/13 05:19:19;;;;;;;;;;;;;;;20.14;62.01;100726.44;4944895;28;6894;-72
2023/08/13 05:21:45;;;;;;;;;;;;;;;20.17;62.15;100723.88;4970980;28;6784;-75
2023/08/13 05:24:10;;;;;;;;;;;;;;;20.18;61.39;100717.81;4934244;28;7632;-73
2023/08/13 05:26:36;;;;;;;;;;;;;;;20.21;61.50;100729.13;4978497;28;6948;-75
2023/08/13 05:29:03;;;;;;;;;;;;;;;20.29;61.92;100734.47;4956601;28;6784;-74
2023/08/13 05:31:29;;;;;;;;;;;;;;;20.33;61.93;100728.44;4935726;28;7258;-74
2023/08/13 05:33:57;;;;;;;;;;;;;;;20.42;61.76;100726.81;4977330;28;6987;-75
2023/08/13 05:36:23;;;;;;;;;;;;;;;20.52;61.74;100719.13;4963228;28;6815;-74
2023/08/13 05:38:49;;;;;;;;;;;;;;;20.64;61.95;100718.38;4951028;28;7046;-75
2023/08/13 05:41:14;;;;;;;;;;;;;;;20.78;61.34;100725.50;4978101;28;6819;-75
2023/08/13 05:43:40;;;;;;;;;;;;;;;20.90;61.56;100727.38;4963241;28;6789;-75
2023/08/13 05:46:06;;;;;;;;;;;;;;;20.99;61.00;100729.22;4948189;28;7292;-75
2023/08/13 05:48:31;;;;;;;;;;;;;;;21.05;61.30;100731.88;4944730;28;7015;-73
2023/08/13 05:50:57;;;;;;;;;;;;;;;21.11;61.02;100729.31;4951057;28;6968;-76
2023/08/13 05:53:23;;;;;;;;;;;;;;;21.20;61.02;100729.41;4941344;28;7650;-75
2023/08/13 05:55:50;;;;;;;;;;;;;;;21.28;60.73;100731.22;4961879;28;7597;-74
2023/08/13 05:58:16;;;;;;;;;;;;;;;21.36;60.77;100729.56;4961537;28;7909;-74
2023/08/13 06:00:42;;;;;;;;;;;;;;;21.43;60.54;100726.13;4953008;28;6983;-74
2023/08/13 06:03:07;;;;;;;;;;;;;;;21.52;60.38;100727.94;4957063;28;6836;-73
2023/08/13 06:05:33;;;;;;;;;;;;;;;21.61;60.75;100729.75;4968715;28;7519;-75
2023/08/13 06:07:59;;;;;;;;;;;;;;;21.70;60.35;100721.16;4950558;28;6973;-75
2023/08/13 06:10:24;;;;;;;;;;;;;;;21.78;60.24;100720.34;4945864;28;6815;-75
2023/08/13 06:12:50;;;;;;;;;;;;;;;21.91;60.40;100723.03;4943315;28;7015;-73
2023/08/13 06:15:15;;;;;;;;;;;;;;;21.98;59.90;100722.22;4964184;28;6788;-74
2023/08/13 06:17:42;;;;;;;;;;;;;;;22.05;59.83;100721.38;4978270;28;6824;-75
2023/08/13 06:20:10;;;;;;;;;;;;;;;22.13;59.87;100723.16;4974292;28;6939;-76
2023/08/13 06:22:35;;;;;;;;;;;;;;;22.24;59.69;100726.69;4963016;28;6991;-74
2023/08/13 06:25:01;;;;;;;;;;;;;;;22.33;59.61;100724.13;4948689;28;6776;-77
2023/08/13 06:27:27;;;;;;;;;;;;;;;22.41;59.33;100729.38;4964211;28;6787;-75
2023/08/13 06:29:52;;;;;;;;;;;;;;;22.48;58.64;100725.03;4952311;28;6963;-75
2023/08/13 06:32:18;;;;;;;;;;;;;;;22.53;59.03;100720.75;4936766;28;7061;-73
2023/08/13 06:34:43;;;;;;;;;;;;;;;22.58;58.66;100720.78;4940252;28;6970;-74
2023/08/13 06:37:09;;;;;;;;;;;;;;;22.65;58.27;100722.56;4954779;28;6839;-75
2023/08/13 06:39:34;;;;;;;;;;;;;;;22.71;58.93;100709.50;4958471;28;6784;-76
2023/08/13 06:42:00;;;;;;;;;;;;;;;22.81;58.63;100713.00;4957301;28;6893;-75
2023/08/13 06:44:25;;;;;;;;;;;;;;;22.91;58.74;100710.41;4941312;28;6856;-74
2023/08/13 06:46:51;;;;;;;;;;;;;;;23.01;58.52;100707.78;4964373;28;7314;-74
2023/08/13 06:49:16;;;;;;;;;;;;;;;23.12;58.15;100713.06;4944201;28;6894;-75
2023/08/13 06:51:42;;;;;;;;;;;;;;;23.24;58.09;100716.53;4961112;28;6938;-73
2023/08/13 06:54:08;;;;;;;;;;;;;;;23.33;58.05;100703.50;4942572;28;7192;-74
2023/08/13 06:56:35;;;;;;;;;;;;;;;23.42;57.94;100706.13;4962508;28;6953;-74
2023/08/13 06:59:02;;;;;;;;;;;;;;;23.50;57.34;100705.25;4956992;28;8217;-75
2023/08/13 07:01:28;;;;;;;;;;;;;;;23.53;57.29;100713.06;4939281;28;7083;-75
2023/08/13 07:03:53;;;;;;;;;;;;;;;23.52;56.51;100711.34;4940639;28;6848;-74
2023/08/13 07:06:19;;;;;;;;;;;;;;;23.50;57.06;100708.72;4958361;28;6801;-74
2023/08/13 07:08:44;;;;;;;;;;;;;;;23.51;56.66;100710.44;4963242;28;6854;-74
2023/08/13 07:11:10;;;;;;;;;;;;;;;23.54;56.29;100714.81;4965942;28;7391;-74
2023/08/13 07:13:35;;;;;;;;;;;;;;;23.60;56.93;100713.94;4940844;28;7090;-74
2023/08/13 07:16:01;;;;;;;;;;;;;;;23.69;56.72;100711.31;4936619;28;7179;-75
2023/08/13 07:18:26;;;;;;;;;;;;;;;23.79;56.92;100706.94;4961204;28;6772;-74
2023/08/13 07:20:52;;;;;;;;;;;;;;;23.93;57.02;100701.69;4974329;28;7126;-74
2023/08/13 07:23:17;;;;;;;;;;;;;;;24.11;57.18;100704.28;4943727;28;6780;-74
2023/08/13 07:25:43;;;;;;;;;;;;;;;24.34;56.70;100712.94;4963452;28;7173;-75
2023/08/13 07:28:08;;;;;;;;;;;;;;;24.49;56.30;100704.97;4963685;28;7122;-73
2023/08/13 07:30:34;;;;;;;;;;;;;;;24.63;56.43;100715.41;4941014;28;8755;-74
2023/08/13 07:33:00;;;;;;;;;;;;;;;24.76;55.59;100696.97;4939244;28;6780;-75
2023/08/13 07:35:25;;;;;;;;;;;;;;;24.89;55.50;100711.78;4960175;28;6925;-75
2023/08/13 07:37:51;;;;;;;;;;;;;;;25.04;55.34;100713.44;4945306;28;6950;-74
2023/08/13 07:40:16;;;;;;;;;;;;;;;25.22;55.44;100706.31;4944416;28;6783;-74
2023/08/13 07:42:42;;;;;;;;;;;;;;;25.42;54.90;100711.38;4954542;28;6955;-74
2023/08/13 07:45:08;;;;;;;;;;;;;;;25.59;54.92;100707.75;4940993;28;7075;-74
2023/08/13 07:47:36;;;;;;;;;;;;;;;25.73;54.52;100702.38;4945470;28;6820;-73
2023/08/13 07:50:04;;;;;;;;;;;;;;;25.89;54.47;100703.97;4977665;28;6832;-74
2023/08/13 07:52:30;;;;;;;;;;;;;;;26.09;53.74;100700.25;4944922;28;6862;-73
2023/08/13 07:54:55;;;;;;;;;;;;;;;26.24;53.29;100700.97;4937671;28;6800;-73
2023/08/13 07:57:21;;;;;;;;;;;;;;;26.34;52.63;100703.47;4963353;28;7255;-73
2023/08/13 07:59:46;;;;;;;;;;;;;;;26.41;52.40;100701.63;4959491;28;6871;-73
2023/08/13 08:02:13;;;;;;;;;;;;;;;26.48;51.83;100708.53;4943820;28;7229;-74
2023/08/13 08:04:38;;;;;;;;;;;;;;;26.54;51.56;100698.81;4936095;28;6800;-73
2023/08/13 08:07:04;;;;;;;;;;;;;;;26.62;51.57;100707.47;4956198;28;7055;-73
2023/08/13 08:09:29;;;;;;;;;;;;;;;26.70;51.39;100704.72;4941479;28;6796;-73
2023/08/13 08:11:55;;;;;;;;;;;;;;;26.81;51.04;100697.56;4960128;28;6792;-73
2023/08/13 08:14:20;;;;;;;;;;;;;;;26.94;50.61;100706.13;4943828;28;7395;-73
2023/08/13 08:16:46;;;;;;;;;;;;;;;27.07;50.18;100708.59;4942285;28;7014;-73
2023/08/13 08:19:12;;;;;;;;;;;;;;;27.16;49.91;100708.44;4972344;28;8119;-73
2023/08/13 08:21:37;;;;;;;;;;;;;;;27.29;49.28;100701.22;4964762;28;6804;-73
2023/08/13 08:24:03;;;;;;;;;;;;;;;27.42;49.34;100699.22;4964418;28;6796;-73
2023/08/13 08:26:29;;;;;;;;;;;;;;;27.56;48.41;100702.53;4943965;28;6797;-73
2023/08/13 08:28:54;;;;;;;;;;;;;;;27.69;48.38;100692.66;4939079;28;6784;-74
2023/08/13 08:31:20;;;;;;;;;;;;;;;27.85;48.19;100692.34;4955268;28;7380;-73
2023/08/13 08:33:46;;;;;;;;;;;;;;;28.05;48.03;100696.34;4939815;28;6864;-75
2023/08/13 08:36:11;;;;;;;;;;;;;;;28.25;46.44;100695.97;4944277;28;6841;-73
2023/08/13 08:38:37;;;;;;;;;;;;;;;28.41;46.32;100697.38;4944480;28;7155;-74
2023/08/13 08:41:02;;;;;;;;;;;;;;;28.60;46.33;100694.34;4932974;28;6979;-74
2023/08/13 08:43:31;;;;;;;;;;;;;;;28.73;45.47;100696.69;4951973;28;6776;-74
2023/08/13 08:45:57;;;;;;;;;;;;;;;28.83;44.71;100693.84;4941446;28;6816;-74
2023/08/13 08:48:26;;;;;;;;;;;;;;;28.92;44.73;100690.09;4959958;28;6812;-74
2023/08/13 08:50:52;;;;;;;;;;;;;;;29.03;44.44;100679.28;4939183;28;6808;-74
2023/08/13 08:53:20;;;;;;;;;;;;;;;29.14;44.32;100676.38;4975071;28;6836;-75
2023/08/13 08:55:47;;;;;;;;;;;;;;;29.21;43.60;100670.03;4966309;28;6969;-74
2023/08/13 08:58:13;;;;;;;;;;;;;;;29.32;44.12;100671.53;4961794;28;6816;-74
2023/08/13 09:00:38;;;;;;;;;;;;;;;29.42;43.97;100666.88;4960514;28;7255;-74
2023/08/13 09:03:04;;;;;;;;;;;;;;;29.51;44.03;100669.31;4971427;28;7050;-74
2023/08/13 09:05:31;;;;;;;;;;;;;;;29.59;43.66;100663.81;4954064;28;7124;-75
2023/08/13 09:07:56;;;;;;;;;;;;;;;29.73;43.12;100661.66;4960671;28;6804;-74
2023/08/13 09:10:22;;;;;;;;;;;;;;;29.90;42.31;100668.22;4950631;28;6879;-74
2023/08/13 09:12:52;;;;;;;;;;;;;;;29.98;41.61;100668.88;4966288;28;6767;-75
2023/08/13 09:15:18;;;;;;;;;;;;;;;30.02;42.01;100664.38;4953879;28;7069;-74
2023/08/13 09:17:43;;;;;;;;;;;;;;;30.03;41.23;100666.09;4986466;28;6807;-74
2023/08/13 09:20:17;;;;;;;;;;;;;;;30.15;41.30;100657.84;4970909;28;6939;-74
2023/08/13 09:22:50;;;;;;;;;;;;;;;30.31;41.50;100649.44;4968921;28;6796;-74
2023/08/13 09:25:17;;;;;;;;;;;;;;;30.49;40.85;100650.66;4955458;28;7003;-75
2023/08/13 09:27:44;;;;;;;;;;;;;;;30.72;40.36;100644.66;4955279;28;6932;-74
2023/08/13 09:30:21;;;;;;;;;;;;;;;31.01;39.72;100641.97;4964125;28;6804;-74
2023/08/13 09:32:47;;;;;;;;;;;;;;;31.24;39.29;100640.34;4945155;28;11445;-75
2023/08/13 09:35:12;;;;;;;;;;;;;;;31.32;38.64;100633.00;4962110;28;7210;-75
2023/08/13 09:37:38;;;;;;;;;;;;;;;31.24;38.56;100641.22;4961326;28;7154;-76
2023/08/13 09:40:05;;;;;;;;;;;;;;;31.15;37.68;100637.06;4964829;28;6841;-75
2023/08/13 09:42:33;;;;;;;;;;;;;;;31.10;37.14;100633.72;4966241;28;6812;-74
2023/08/13 09:45:02;;;;;;;;;;;;;;;31.02;37.56;100633.13;4962454;28;7003;-74
2023/08/13 09:47:28;;;;;;;;;;;;;;;31.00;38.16;100626.97;4951857;28;6837;-74
2023/08/13 09:49:58;;;;;;;;;;;;;;;31.14;38.18;100630.03;4964450;28;6780;-74
2023/08/13 09:52:30;;;;;;;;;;;;;;;31.49;38.27;100626.25;4947510;28;10131;-75
2023/08/13 09:55:06;;;;;;;;;;;;;;;31.71;37.46;100623.63;4966193;28;7479;-74
2023/08/13 09:57:32;;;;;;;;;;;;;;;31.77;36.81;100622.53;4961126;28;7125;-73
2023/08/13 09:59:58;;;;;;;;;;;;;;;31.85;36.65;100618.72;4973871;28;7795;-73
2023/08/13 10:02:24;;;;;;;;;;;;;;;31.83;36.57;100617.94;4947575;28;7158;-73
2023/08/13 10:04:50;;;;;;;;;;;;;;;31.83;37.24;100622.34;4961782;28;7163;-73
2023/08/13 10:07:18;;;;;;;;;;;;;;;32.03;37.59;100616.31;4965662;28;6784;-73
2023/08/13 10:09:44;;;;;;;;;;;;;;;32.43;36.86;100616.53;4962656;28;6997;-73
2023/08/13 10:12:10;;;;;;;;;;;;;;;32.87;36.19;100612.09;4962020;28;6792;-73
2023/08/13 10:14:36;;;;;;;;;;;;;;;33.45;36.79;100606.06;4945609;28;8479;-73
2023/08/13 10:17:06;;;;;;;;;;;;;;;34.08;35.51;100609.44;4947903;28;7236;-70
2023/08/13 10:19:38;;;;;;;;;;;;;;;34.47;34.68;100603.13;4944846;28;7216;-70
2023/08/13 10:22:03;;;;;;;;;;;;;;;34.62;34.02;100596.22;4946581;28;7186;-71
2023/08/13 10:24:30;;;;;;;;;;;;;;;34.68;34.15;100596.84;4964472;28;6800;-71
2023/08/13 10:26:57;;;;;;;;;;;;;;;34.84;33.33;100596.91;4955983;28;7311;-71
2023/08/13 10:29:24;;;;;;;;;;;;;;;35.08;33.09;100593.97;4948287;28;6796;-72
2023/08/13 10:32:01;;;;;;;;;;;;;;;35.08;33.22;100599.28;4963557;28;6893;-70
2023/08/13 10:34:54;;;;;;;;;;;;;;;35.13;32.59;100586.59;4962117;28;6796;-71
2023/08/13 10:37:21;;;;;;;;;;;;;;;35.33;32.65;100579.34;4955627;28;6820;-71
2023/08/13 10:40:06;;;;;;;;;;;;;;;35.67;32.48;100582.88;4947243;28;7060;-71
2023/08/13 10:42:36;;;;;;;;;;;;;;;35.49;31.83;100582.91;4972180;28;6815;-72
2023/08/13 10:45:04;;;;;;;;;;;;;;;34.93;32.17;100585.78;4967246;28;7231;-71
2023/08/13 10:47:51;;;;;;;;;;;;;;;34.53;32.70;100585.19;4964707;28;6868;-71
2023/08/13 10:50:19;;;;;;;;;;;;;;;34.48;32.82;100580.94;4967274;28;6815;-71
2023/08/13 10:52:51;;;;;;;;;;;;;;;34.68;32.59;100575.56;4964879;28;6824;-71
2023/08/13 10:55:18;;;;;;;;;;;;;;;35.31;32.51;100572.28;4964209;28;7001;-71
2023/08/13 10:57:48;;;;;;;;;;;;;;;36.02;31.50;100574.69;4967043;28;6800;-71
2023/08/13 11:00:14;;;;;;;;;;;;;;;36.04;30.31;100582.59;4965327;28;6815;-71
2023/08/13 11:02:43;;;;;;;;;;;;;;;35.41;30.07;100585.13;4981622;28;6783;-71
2023/08/13 11:05:09;;;;;;;;;;;;;;;34.62;30.78;100587.38;4981649;28;6815;-71
2023/08/13 11:07:35;;;;;;;;;;;;;;;34.03;31.00;100592.88;4974259;28;7329;-70
2023/08/13 11:10:03;;;;;;;;;;;;;;;34.03;31.77;100584.91;4945300;28;6998;-71
2023/08/13 11:12:29;;;;;;;;;;;;;;;34.35;32.06;100587.78;4944992;28;6876;-72
2023/08/13 11:14:59;;;;;;;;;;;;;;;34.69;31.32;100577.28;4963949;28;7087;-71
2023/08/13 11:17:24;;;;;;;;;;;;;;;35.01;30.68;100578.28;4944530;28;7229;-71
2023/08/13 11:19:50;;;;;;;;;;;;;;;35.20;30.66;100574.69;4973621;28;6967;-71
2023/08/13 11:22:17;;;;;;;;;;;;;;;35.07;30.16;100577.13;4963008;28;6973;-70
2023/08/13 11:24:45;;;;;;;;;;;;;;;34.79;30.02;100572.34;4962371;28;7286;-70
2023/08/13 11:27:10;;;;;;;;;;;;;;;34.43;30.44;100571.41;4934354;28;6984;-70
2023/08/13 11:29:36;;;;;;;;;;;;;;;34.06;30.56;100574.09;4936418;28;7396;-70
2023/08/13 11:32:04;;;;;;;;;;;;;;;33.83;30.74;100573.38;4943799;28;7195;-71
2023/08/13 11:34:29;;;;;;;;;;;;;;;33.77;30.52;100565.69;4944202;28;6816;-71
2023/08/13 11:36:56;;;;;;;;;;;;;;;33.87;30.49;100574.94;4959447;28;6887;-71
2023/08/13 11:39:23;;;;;;;;;;;;;;;33.93;30.67;100577.31;4942740;28;7565;-71
2023/08/13 11:41:50;;;;;;;;;;;;;;;33.57;30.21;100575.44;4941180;28;7027;-70
2023/08/13 11:44:16;;;;;;;;;;;;;;;33.13;30.41;100570.31;4944061;28;6876;-70
2023/08/13 11:46:55;;;;;;;;;;;;;;;32.80;31.38;100583.16;4962624;28;6875;-70
2023/08/13 11:49:21;;;;;;;;;;;;;;;32.89;32.20;100573.97;4941316;28;7104;-70
2023/08/13 11:51:47;;;;;;;;;;;;;;;33.24;32.32;100570.72;4961923;28;7159;-71
2023/08/13 11:54:13;;;;;;;;;;;;;;;33.68;31.22;100563.47;4958506;28;6780;-70
2023/08/13 11:56:39;;;;;;;;;;;;;;;33.99;30.79;100572.63;4943562;28;6848;-70
2023/08/13 11:59:06;;;;;;;;;;;;;;;34.23;30.39;100562.63;4936128;28;6981;-70
2023/08/13 12:01:34;;;;;;;;;;;;;;;34.30;29.93;100565.88;4943166;28;6965;-71
2023/08/13 12:04:02;;;;;;;;;;;;;;;34.30;30.16;100572.03;4945559;28;6804;-71
2023/08/13 12:06:28;;;;;;;;;;;;;;;34.31;29.89;100556.97;4940838;28;6857;-71
2023/08/13 12:08:53;;;;;;;;;;;;;;;34.31;29.38;100560.47;4942489;28;6783;-71
2023/08/13 12:11:19;;;;;;;;;;;;;;;34.33;30.09;100565.72;4977229;28;6987;-70
2023/08/13 12:13:45;;;;;;;;;;;;;;;34.35;29.65;100555.84;4955399;28;7294;-70
2023/08/13 12:16:10;;;;;;;;;;;;;;;34.28;29.52;100562.41;4961260;28;6800;-72
2023/08/13 12:18:36;;;;;;;;;;;;;;;34.24;29.12;100556.41;4956719;28;6892;-70
2023/08/13 12:21:02;;;;;;;;;;;;;;;34.20;29.11;100560.13;4974931;28;7240;-70
2023/08/13 12:23:28;;;;;;;;;;;;;;;34.23;29.37;100553.81;4939748;28;7032;-72
2023/08/13 12:25:53;;;;;;;;;;;;;;;34.16;29.15;100556.75;4941882;28;6784;-69
2023/08/13 12:28:19;;;;;;;;;;;;;;;34.06;29.12;100547.50;4940916;28;6815;-72
2023/08/13 12:30:44;;;;;;;;;;;;;;;33.99;28.75;100560.22;4975781;28;6929;-70
2023/08/13 12:33:10;;;;;;;;;;;;;;;34.03;28.94;100558.31;4957234;28;7146;-72
2023/08/13 12:35:35;;;;;;;;;;;;;;;33.97;29.02;100553.25;4943983;28;6788;-70
2023/08/13 12:38:01;;;;;;;;;;;;;;;33.87;28.97;100550.19;4958521;28;6791;-68
2023/08/13 12:40:26;;;;;;;;;;;;;;;33.83;29.78;100549.47;4960313;28;6991;-69
2023/08/13 12:42:53;;;;;;;;;;;;;;;33.84;30.28;100543.22;4977346;28;6772;-69
2023/08/13 12:45:19;;;;;;;;;;;;;;;33.82;30.11;100539.78;4973922;28;7199;-69